Overview Statistics Trail Chart Weather Telemetry Raw packets
 

This is the latest recevied weather packets stored in our database for station/object KB4RFE. If no packets are shown the sender has not sent any weather packets the latest 10 day(s).

<< 24 25 26 27 28 29 30 >>
Time Temp. Humidity Pressure Rain* Wind** Luminosity Snow
1788461261 33.33° C 74% 1020.2 hPa 0 mm - 741 W/m² -
1788460957 32.78° C 77% 1020.4 hPa 0 mm - 732 W/m² -
1788460652 32.78° C 74% 1020.4 hPa 0 mm - 746 W/m² -
1788460346 33.33° C 71% 1020.4 hPa 0 mm - 761 W/m² -
1788460045 33.33° C 72% 1020.6 hPa 0 mm - 783 W/m² -
1788459741 33.33° C 72% 1020.5 hPa 0 mm - 666 W/m² -
1788459439 33.89° C 71% 1020.5 hPa 0 mm - 790 W/m² -
1788459134 33.33° C 73% 1020.4 hPa 0 mm - 358 W/m² -
1788458830 33.33° C 75% 1020.5 hPa 0 mm - 808 W/m² -
1788458529 33.33° C 75% 1020.5 hPa 0 mm - 798 W/m² -
1788458229 32.78° C 74% 1020.4 hPa 0 mm - 800 W/m² -
1788457923 32.78° C 72% 1020.5 hPa 0 mm - 800 W/m² -
1788457623 32.78° C 71% 1020.6 hPa 0 mm - 803 W/m² -
1788457317 32.78° C 75% 1020.7 hPa 0 mm - 799 W/m² -
1788457013 32.22° C 73% 1020.6 hPa 0 mm - 800 W/m² -
1788456709 32.22° C 74% 1020.6 hPa 0 mm - 802 W/m² -
1788456409 32.22° C 73% 1020.5 hPa 0 mm - 803 W/m² -
1788456104 32.78° C 71% 1020.6 hPa 0 mm - 805 W/m² -
1788455804 32.78° C 71% 1020.7 hPa 0 mm - 805 W/m² -
1788455500 33.89° C 68% 1020.6 hPa 0 mm - 801 W/m² -
1788455199 34.44° C 66% 1020.6 hPa 0 mm - 797 W/m² -
1788454895 33.89° C 67% 1020.8 hPa 0 mm - 794 W/m² -
1788454592 34.44° C 65% 1021.1 hPa 0 mm - 790 W/m² -
1788454287 34.44° C 65% 1021 hPa 0 mm - 788 W/m² -
1788453982 34.44° C 64% 1021.3 hPa 0 mm - 783 W/m² -

* Rain latest hour (hover to see other rain measurements)
** Current wind speed in m/s (hover to see current wind gust speed)